sensor_id;sensor_type;location;lat;lon;timestamp;pressure;altitude;pressure_sealevel;temperature;humidity
59513;BME280;45330;51.634;5.562;2023-06-19T00:02:14;100725.41;;;21.52;71.84
59513;BME280;45330;51.634;5.562;2023-06-19T00:04:39;100706.72;;;21.37;71.50
59513;BME280;45330;51.634;5.562;2023-06-19T00:07:05;100717.13;;;21.40;72.48
59513;BME280;45330;51.634;5.562;2023-06-19T00:09:30;100713.00;;;21.35;71.79
59513;BME280;45330;51.634;5.562;2023-06-19T00:11:55;100721.66;;;21.38;71.44
59513;BME280;45330;51.634;5.562;2023-06-19T00:14:21;100720.66;;;21.41;71.07
59513;BME280;45330;51.634;5.562;2023-06-19T00:16:46;100734.56;;;21.45;71.07
59513;BME280;45330;51.634;5.562;2023-06-19T00:19:12;100723.47;;;21.38;71.58
59513;BME280;45330;51.634;5.562;2023-06-19T00:21:38;100724.03;;;21.27;71.59
59513;BME280;45330;51.634;5.562;2023-06-19T00:24:04;100725.38;;;21.18;72.26
59513;BME280;45330;51.634;5.562;2023-06-19T00:26:30;100747.84;;;21.27;72.97
59513;BME280;45330;51.634;5.562;2023-06-19T00:28:56;100744.28;;;21.28;72.39
59513;BME280;45330;51.634;5.562;2023-06-19T00:31:22;100745.19;;;21.27;72.32
59513;BME280;45330;51.634;5.562;2023-06-19T00:33:47;100758.09;;;21.33;71.84
59513;BME280;45330;51.634;5.562;2023-06-19T00:36:15;100750.31;;;21.30;71.62
59513;BME280;45330;51.634;5.562;2023-06-19T00:38:41;100766.84;;;21.35;71.76
59513;BME280;45330;51.634;5.562;2023-06-19T00:41:06;100774.47;;;21.24;72.11
59513;BME280;45330;51.634;5.562;2023-06-19T00:43:32;100762.81;;;21.11;72.43
59513;BME280;45330;51.634;5.562;2023-06-19T00:45:58;100767.63;;;21.02;72.62
59513;BME280;45330;51.634;5.562;2023-06-19T00:48:24;100784.47;;;21.01;73.26
59513;BME280;45330;51.634;5.562;2023-06-19T00:50:51;100786.72;;;20.92;73.89
59513;BME280;45330;51.634;5.562;2023-06-19T00:53:17;100781.19;;;20.79;74.49
59513;BME280;45330;51.634;5.562;2023-06-19T00:55:43;100767.97;;;20.60;74.84
59513;BME280;45330;51.634;5.562;2023-06-19T00:58:09;100780.78;;;20.50;75.71
59513;BME280;45330;51.634;5.562;2023-06-19T01:00:35;100782.94;;;20.42;76.96
59513;BME280;45330;51.634;5.562;2023-06-19T01:03:00;100787.72;;;20.33;77.99
59513;BME280;45330;51.634;5.562;2023-06-19T01:05:26;100777.91;;;20.18;78.31
59513;BME280;45330;51.634;5.562;2023-06-19T01:08:02;100787.78;;;20.14;78.58
59513;BME280;45330;51.634;5.562;2023-06-19T01:10:35;100795.78;;;20.13;79.61
59513;BME280;45330;51.634;5.562;2023-06-19T01:13:06;100801.06;;;20.13;80.46
59513;BME280;45330;51.634;5.562;2023-06-19T01:15:34;100776.13;;;19.99;80.84
59513;BME280;45330;51.634;5.562;2023-06-19T01:18:00;100782.31;;;19.98;81.23
59513;BME280;45330;51.634;5.562;2023-06-19T01:20:27;100791.63;;;20.07;82.24
59513;BME280;45330;51.634;5.562;2023-06-19T01:22:53;100799.63;;;20.05;82.85
59513;BME280;45330;51.634;5.562;2023-06-19T01:25:23;100798.81;;;20.03;82.61
59513;BME280;45330;51.634;5.562;2023-06-19T01:27:48;100797.41;;;19.96;83.09
59513;BME280;45330;51.634;5.562;2023-06-19T01:30:13;100789.03;;;19.86;83.71
59513;BME280;45330;51.634;5.562;2023-06-19T01:33:04;100804.59;;;19.93;83.88
59513;BME280;45330;51.634;5.562;2023-06-19T01:35:35;100809.44;;;19.83;85.20
59513;BME280;45330;51.634;5.562;2023-06-19T01:38:01;100804.31;;;19.80;86.22
59513;BME280;45330;51.634;5.562;2023-06-19T01:40:28;100805.41;;;19.74;86.98
59513;BME280;45330;51.634;5.562;2023-06-19T01:42:57;100814.13;;;19.76;87.77
59513;BME280;45330;51.634;5.562;2023-06-19T01:45:24;100809.03;;;19.71;88.50
59513;BME280;45330;51.634;5.562;2023-06-19T01:47:50;100814.88;;;19.80;89.20
59513;BME280;45330;51.634;5.562;2023-06-19T01:50:15;100806.31;;;19.73;89.12
59513;BME280;45330;51.634;5.562;2023-06-19T01:52:41;100815.53;;;19.85;89.53
59513;BME280;45330;51.634;5.562;2023-06-19T01:55:07;100826.59;;;19.93;89.27
59513;BME280;45330;51.634;5.562;2023-06-19T01:57:32;100835.97;;;20.00;88.88
59513;BME280;45330;51.634;5.562;2023-06-19T01:59:58;100814.47;;;19.89;89.95
59513;BME280;45330;51.634;5.562;2023-06-19T02:02:23;100837.09;;;19.95;90.22
59513;BME280;45330;51.634;5.562;2023-06-19T02:04:49;100838.84;;;19.94;90.17
59513;BME280;45330;51.634;5.562;2023-06-19T02:07:14;100842.00;;;19.83;91.40
59513;BME280;45330;51.634;5.562;2023-06-19T02:09:40;100826.75;;;19.69;91.79
59513;BME280;45330;51.634;5.562;2023-06-19T02:12:07;100834.75;;;19.68;92.53
59513;BME280;45330;51.634;5.562;2023-06-19T02:14:32;100833.28;;;19.61;93.43
59513;BME280;45330;51.634;5.562;2023-06-19T02:16:57;100842.72;;;19.46;94.66
59513;BME280;45330;51.634;5.562;2023-06-19T02:19:23;100823.41;;;19.25;96.33
59513;BME280;45330;51.634;5.562;2023-06-19T02:21:48;100829.72;;;19.20;97.52
59513;BME280;45330;51.634;5.562;2023-06-19T02:24:14;100859.16;;;19.32;98.25
59513;BME280;45330;51.634;5.562;2023-06-19T02:26:39;100864.13;;;19.40;98.44
59513;BME280;45330;51.634;5.562;2023-06-19T02:29:04;100856.06;;;19.43;98.68
59513;BME280;45330;51.634;5.562;2023-06-19T02:31:30;100854.09;;;19.48;98.84
59513;BME280;45330;51.634;5.562;2023-06-19T02:33:55;100861.06;;;19.49;99.66
59513;BME280;45330;51.634;5.562;2023-06-19T02:36:20;100866.34;;;19.49;100.00
59513;BME280;45330;51.634;5.562;2023-06-19T02:38:46;100866.28;;;19.50;100.00
59513;BME280;45330;51.634;5.562;2023-06-19T02:41:12;100859.31;;;19.49;100.00
59513;BME280;45330;51.634;5.562;2023-06-19T02:43:42;100840.31;;;19.41;100.00
59513;BME280;45330;51.634;5.562;2023-06-19T02:46:08;100848.75;;;19.49;100.00
59513;BME280;45330;51.634;5.562;2023-06-19T02:48:34;100834.41;;;19.34;100.00
59513;BME280;45330;51.634;5.562;2023-06-19T02:50:59;100853.03;;;19.31;100.00
59513;BME280;45330;51.634;5.562;2023-06-19T02:53:24;100852.88;;;19.14;100.00
59513;BME280;45330;51.634;5.562;2023-06-19T02:55:50;100854.25;;;19.02;100.00
59513;BME280;45330;51.634;5.562;2023-06-19T02:58:15;100856.41;;;18.92;100.00
59513;BME280;45330;51.634;5.562;2023-06-19T03:00:40;100850.59;;;18.82;100.00
59513;BME280;45330;51.634;5.562;2023-06-19T03:03:06;100853.72;;;18.70;100.00
59513;BME280;45330;51.634;5.562;2023-06-19T03:05:31;100851.41;;;18.62;100.00
59513;BME280;45330;51.634;5.562;2023-06-19T03:07:57;100867.28;;;18.61;100.00
59513;BME280;45330;51.634;5.562;2023-06-19T03:10:22;100863.41;;;18.47;100.00
59513;BME280;45330;51.634;5.562;2023-06-19T03:12:47;100869.53;;;18.48;100.00
59513;BME280;45330;51.634;5.562;2023-06-19T03:15:13;100876.66;;;18.46;100.00
59513;BME280;45330;51.634;5.562;2023-06-19T03:17:39;100871.63;;;18.40;100.00
59513;BME280;45330;51.634;5.562;2023-06-19T03:20:05;100860.78;;;18.24;100.00
59513;BME280;45330;51.634;5.562;2023-06-19T03:22:31;100881.75;;;18.27;100.00
59513;BME280;45330;51.634;5.562;2023-06-19T03:24:57;100875.75;;;18.23;100.00
59513;BME280;45330;51.634;5.562;2023-06-19T03:27:22;100865.41;;;18.17;100.00
59513;BME280;45330;51.634;5.562;2023-06-19T03:29:50;100872.59;;;18.13;100.00
59513;BME280;45330;51.634;5.562;2023-06-19T03:32:15;100888.00;;;18.24;100.00
59513;BME280;45330;51.634;5.562;2023-06-19T03:34:41;100888.84;;;18.25;100.00
59513;BME280;45330;51.634;5.562;2023-06-19T03:37:07;100877.91;;;18.12;100.00
59513;BME280;45330;51.634;5.562;2023-06-19T03:39:32;100889.94;;;18.19;100.00
59513;BME280;45330;51.634;5.562;2023-06-19T03:41:57;100898.63;;;18.21;100.00
59513;BME280;45330;51.634;5.562;2023-06-19T03:44:23;100884.94;;;18.11;100.00
59513;BME280;45330;51.634;5.562;2023-06-19T03:46:48;100909.28;;;18.18;100.00
59513;BME280;45330;51.634;5.562;2023-06-19T03:49:15;100910.91;;;18.22;100.00
59513;BME280;45330;51.634;5.562;2023-06-19T03:51:40;100896.81;;;18.23;100.00
59513;BME280;45330;51.634;5.562;2023-06-19T03:54:06;100913.78;;;18.40;100.00
59513;BME280;45330;51.634;5.562;2023-06-19T03:56:31;100909.16;;;18.45;100.00
59513;BME280;45330;51.634;5.562;2023-06-19T03:58:57;100900.94;;;18.54;100.00
59513;BME280;45330;51.634;5.562;2023-06-19T04:01:22;100902.41;;;18.61;100.00
59513;BME280;45330;51.634;5.562;2023-06-19T04:03:47;100909.16;;;18.68;100.00
59513;BME280;45330;51.634;5.562;2023-06-19T04:06:13;100927.19;;;18.79;100.00
59513;BME280;45330;51.634;5.562;2023-06-19T04:08:38;100929.53;;;18.87;100.00
59513;BME280;45330;51.634;5.562;2023-06-19T04:11:04;100909.53;;;18.81;100.00
59513;BME280;45330;51.634;5.562;2023-06-19T04:13:29;100930.09;;;18.95;100.00
59513;BME280;45330;51.634;5.562;2023-06-19T04:15:54;100912.53;;;18.96;100.00
59513;BME280;45330;51.634;5.562;2023-06-19T04:18:20;100930.31;;;19.13;100.00
59513;BME280;45330;51.634;5.562;2023-06-19T04:20:45;100919.84;;;19.10;100.00
59513;BME280;45330;51.634;5.562;2023-06-19T04:23:10;100923.53;;;19.06;100.00
59513;BME280;45330;51.634;5.562;2023-06-19T04:25:37;100923.59;;;19.04;100.00
59513;BME280;45330;51.634;5.562;2023-06-19T04:28:02;100950.38;;;19.17;100.00
59513;BME280;45330;51.634;5.562;2023-06-19T04:30:29;100960.72;;;19.22;100.00
59513;BME280;45330;51.634;5.562;2023-06-19T04:32:55;100951.00;;;19.22;100.00
59513;BME280;45330;51.634;5.562;2023-06-19T04:35:20;100950.88;;;19.25;100.00
59513;BME280;45330;51.634;5.562;2023-06-19T04:37:46;100945.50;;;19.28;100.00
59513;BME280;45330;51.634;5.562;2023-06-19T04:40:13;100966.97;;;19.41;100.00
59513;BME280;45330;51.634;5.562;2023-06-19T04:42:39;100969.78;;;19.36;100.00
59513;BME280;45330;51.634;5.562;2023-06-19T04:45:05;100970.88;;;19.31;100.00
59513;BME280;45330;51.634;5.562;2023-06-19T04:47:33;100978.00;;;19.29;100.00
59513;BME280;45330;51.634;5.562;2023-06-19T04:49:59;100958.28;;;19.17;100.00
59513;BME280;45330;51.634;5.562;2023-06-19T04:52:25;100959.19;;;19.16;100.00
59513;BME280;45330;51.634;5.562;2023-06-19T04:54:50;100967.81;;;19.19;100.00
59513;BME280;45330;51.634;5.562;2023-06-19T04:57:16;100973.84;;;19.23;100.00
59513;BME280;45330;51.634;5.562;2023-06-19T04:59:44;100973.00;;;19.23;100.00
59513;BME280;45330;51.634;5.562;2023-06-19T05:02:10;100972.88;;;19.26;100.00
59513;BME280;45330;51.634;5.562;2023-06-19T05:04:36;100970.16;;;19.27;100.00
59513;BME280;45330;51.634;5.562;2023-06-19T05:07:01;100975.31;;;19.30;100.00
59513;BME280;45330;51.634;5.562;2023-06-19T05:09:28;100971.16;;;19.25;100.00
59513;BME280;45330;51.634;5.562;2023-06-19T05:11:53;100982.19;;;19.34;100.00
59513;BME280;45330;51.634;5.562;2023-06-19T05:14:19;100986.56;;;19.35;100.00
59513;BME280;45330;51.634;5.562;2023-06-19T05:16:44;100990.78;;;19.40;100.00
59513;BME280;45330;51.634;5.562;2023-06-19T05:19:09;100981.22;;;19.37;100.00
59513;BME280;45330;51.634;5.562;2023-06-19T05:21:35;100990.78;;;19.40;100.00
59513;BME280;45330;51.634;5.562;2023-06-19T05:24:01;100975.31;;;19.30;100.00
59513;BME280;45330;51.634;5.562;2023-06-19T05:26:26;100985.25;;;19.46;100.00
59513;BME280;45330;51.634;5.562;2023-06-19T05:28:52;100990.38;;;19.49;100.00
59513;BME280;45330;51.634;5.562;2023-06-19T05:31:17;100989.09;;;19.59;100.00
59513;BME280;45330;51.634;5.562;2023-06-19T05:33:44;100989.88;;;19.61;100.00
59513;BME280;45330;51.634;5.562;2023-06-19T05:36:09;100992.59;;;19.60;100.00
59513;BME280;45330;51.634;5.562;2023-06-19T05:38:35;100992.53;;;19.61;100.00
59513;BME280;45330;51.634;5.562;2023-06-19T05:41:01;100988.84;;;19.65;100.00
59513;BME280;45330;51.634;5.562;2023-06-19T05:43:27;100991.41;;;19.67;100.00
59513;BME280;45330;51.634;5.562;2023-06-19T05:45:53;100973.50;;;19.53;100.00
59513;BME280;45330;51.634;5.562;2023-06-19T05:48:19;100991.63;;;19.62;100.00
59513;BME280;45330;51.634;5.562;2023-06-19T05:50:44;101012.34;;;19.71;100.00
59513;BME280;45330;51.634;5.562;2023-06-19T05:53:10;101001.06;;;19.68;100.00
59513;BME280;45330;51.634;5.562;2023-06-19T05:55:35;100990.88;;;19.81;100.00
59513;BME280;45330;51.634;5.562;2023-06-19T05:58:02;101015.63;;;19.99;100.00
59513;BME280;45330;51.634;5.562;2023-06-19T06:00:27;101008.75;;;20.15;100.00
59513;BME280;45330;51.634;5.562;2023-06-19T06:02:56;101012.44;;;20.32;100.00
59513;BME280;45330;51.634;5.562;2023-06-19T06:05:21;101004.28;;;20.57;100.00
59513;BME280;45330;51.634;5.562;2023-06-19T06:07:46;101013.06;;;20.97;100.00
59513;BME280;45330;51.634;5.562;2023-06-19T06:10:12;101010.78;;;21.26;100.00
59513;BME280;45330;51.634;5.562;2023-06-19T06:12:37;101000.03;;;22.18;100.00
59513;BME280;45330;51.634;5.562;2023-06-19T06:15:04;101014.59;;;23.26;100.00
59513;BME280;45330;51.634;5.562;2023-06-19T06:17:30;101021.69;;;23.41;100.00
59513;BME280;45330;51.634;5.562;2023-06-19T06:19:56;101015.97;;;23.17;100.00
59513;BME280;45330;51.634;5.562;2023-06-19T06:22:21;101020.69;;;23.28;100.00
59513;BME280;45330;51.634;5.562;2023-06-19T06:24:47;101043.78;;;23.10;99.13
59513;BME280;45330;51.634;5.562;2023-06-19T06:27:13;101047.94;;;22.66;98.68
59513;BME280;45330;51.634;5.562;2023-06-19T06:29:38;101049.31;;;22.22;100.00
59513;BME280;45330;51.634;5.562;2023-06-19T06:32:05;101049.69;;;22.32;100.00
59513;BME280;45330;51.634;5.562;2023-06-19T06:34:31;101043.16;;;22.89;96.73
59513;BME280;45330;51.634;5.562;2023-06-19T06:36:58;101062.66;;;23.53;92.45
59513;BME280;45330;51.634;5.562;2023-06-19T06:39:23;101052.97;;;23.36;90.58
59513;BME280;45330;51.634;5.562;2023-06-19T06:41:49;101045.38;;;22.81;92.83
59513;BME280;45330;51.634;5.562;2023-06-19T06:44:14;101064.47;;;23.21;92.49
59513;BME280;45330;51.634;5.562;2023-06-19T06:46:40;101064.44;;;23.99;86.24
59513;BME280;45330;51.634;5.562;2023-06-19T06:49:05;101076.34;;;24.81;80.49
59513;BME280;45330;51.634;5.562;2023-06-19T06:51:31;101067.06;;;25.16;76.30
59513;BME280;45330;51.634;5.562;2023-06-19T06:53:56;101080.41;;;25.58;74.86
59513;BME280;45330;51.634;5.562;2023-06-19T06:56:21;101076.09;;;26.23;71.50
59513;BME280;45330;51.634;5.562;2023-06-19T06:58:47;101090.66;;;26.83;67.62
59513;BME280;45330;51.634;5.562;2023-06-19T07:01:12;101083.13;;;27.01;65.92
59513;BME280;45330;51.634;5.562;2023-06-19T07:03:37;101081.25;;;26.51;64.55
59513;BME280;45330;51.634;5.562;2023-06-19T07:06:04;101075.47;;;25.92;65.48
59513;BME280;45330;51.634;5.562;2023-06-19T07:08:30;101094.47;;;25.18;67.29
59513;BME280;45330;51.634;5.562;2023-06-19T07:10:55;101096.34;;;24.58;69.71
59513;BME280;45330;51.634;5.562;2023-06-19T07:13:21;101095.94;;;24.36;71.51
59513;BME280;45330;51.634;5.562;2023-06-19T07:15:46;101103.09;;;24.35;71.96
59513;BME280;45330;51.634;5.562;2023-06-19T07:18:12;101093.47;;;24.32;71.78
59513;BME280;45330;51.634;5.562;2023-06-19T07:20:37;101102.88;;;24.24;71.30
59513;BME280;45330;51.634;5.562;2023-06-19T07:23:02;101110.22;;;24.04;71.81
59513;BME280;45330;51.634;5.562;2023-06-19T07:25:28;101110.66;;;24.27;73.24
59513;BME280;45330;51.634;5.562;2023-06-19T07:27:53;101116.56;;;24.32;73.01
59513;BME280;45330;51.634;5.562;2023-06-19T07:30:19;101100.97;;;24.26;72.13
59513;BME280;45330;51.634;5.562;2023-06-19T07:32:44;101117.91;;;24.39;71.88
59513;BME280;45330;51.634;5.562;2023-06-19T07:35:10;101127.03;;;24.35;71.44
59513;BME280;45330;51.634;5.562;2023-06-19T07:37:36;101130.09;;;24.43;72.11
59513;BME280;45330;51.634;5.562;2023-06-19T07:40:02;101123.88;;;24.43;71.74
59513;BME280;45330;51.634;5.562;2023-06-19T07:42:28;101133.06;;;24.23;72.22
59513;BME280;45330;51.634;5.562;2023-06-19T07:44:53;101134.38;;;24.15;72.68
59513;BME280;45330;51.634;5.562;2023-06-19T07:47:19;101128.13;;;24.17;73.17
59513;BME280;45330;51.634;5.562;2023-06-19T07:49:46;101123.16;;;24.10;73.59
59513;BME280;45330;51.634;5.562;2023-06-19T07:52:12;101133.47;;;24.01;71.44
59513;BME280;45330;51.634;5.562;2023-06-19T07:54:51;101126.53;;;23.98;72.57
59513;BME280;45330;51.634;5.562;2023-06-19T07:57:17;101110.00;;;23.93;72.82
59513;BME280;45330;51.634;5.562;2023-06-19T07:59:43;101113.88;;;23.71;71.99
59513;BME280;45330;51.634;5.562;2023-06-19T08:02:10;101124.88;;;23.79;73.25
59513;BME280;45330;51.634;5.562;2023-06-19T08:04:35;101118.25;;;23.88;72.28
59513;BME280;45330;51.634;5.562;2023-06-19T08:07:00;101137.72;;;24.19;71.25
59513;BME280;45330;51.634;5.562;2023-06-19T08:09:26;101140.13;;;24.38;71.85
59513;BME280;45330;51.634;5.562;2023-06-19T08:11:51;101125.91;;;24.39;70.26
59513;BME280;45330;51.634;5.562;2023-06-19T08:14:16;101136.44;;;24.10;68.97
59513;BME280;45330;51.634;5.562;2023-06-19T08:16:42;101137.19;;;23.98;70.27
59513;BME280;45330;51.634;5.562;2023-06-19T08:19:07;101126.34;;;24.01;70.75
59513;BME280;45330;51.634;5.562;2023-06-19T08:21:32;101135.63;;;24.24;69.42
59513;BME280;45330;51.634;5.562;2023-06-19T08:23:58;101140.13;;;24.38;68.07
59513;BME280;45330;51.634;5.562;2023-06-19T08:26:23;101140.81;;;24.42;68.71
59513;BME280;45330;51.634;5.562;2023-06-19T08:28:49;101142.28;;;24.31;68.02
59513;BME280;45330;51.634;5.562;2023-06-19T08:31:14;101161.81;;;24.46;68.28
59513;BME280;45330;51.634;5.562;2023-06-19T08:33:39;101152.84;;;24.63;67.85
59513;BME280;45330;51.634;5.562;2023-06-19T08:36:05;101134.91;;;24.81;67.12
59513;BME280;45330;51.634;5.562;2023-06-19T08:38:30;101139.09;;;25.00;66.28
59513;BME280;45330;51.634;5.562;2023-06-19T08:40:56;101139.38;;;25.10;66.48
59513;BME280;45330;51.634;5.562;2023-06-19T08:43:21;101142.69;;;25.28;66.01
59513;BME280;45330;51.634;5.562;2023-06-19T08:48:37;101154.28;;;25.27;64.52
59513;BME280;45330;51.634;5.562;2023-06-19T08:51:06;101167.50;;;25.14;63.90
59513;BME280;45330;51.634;5.562;2023-06-19T08:53:35;101163.44;;;25.08;64.87
59513;BME280;45330;51.634;5.562;2023-06-19T08:56:02;101168.38;;;25.14;65.25
59513;BME280;45330;51.634;5.562;2023-06-19T08:58:28;101167.25;;;25.33;64.64
59513;BME280;45330;51.634;5.562;2023-06-19T09:00:53;101159.50;;;25.57;63.84
59513;BME280;45330;51.634;5.562;2023-06-19T09:03:22;101162.84;;;25.74;63.29
59513;BME280;45330;51.634;5.562;2023-06-19T09:05:49;101181.25;;;25.64;62.41
59513;BME280;45330;51.634;5.562;2023-06-19T09:08:16;101178.63;;;25.49;63.47
59513;BME280;45330;51.634;5.562;2023-06-19T09:10:42;101195.03;;;25.43;63.24
59513;BME280;45330;51.634;5.562;2023-06-19T09:13:07;101184.00;;;25.35;63.25
59513;BME280;45330;51.634;5.562;2023-06-19T09:15:37;101189.09;;;25.52;63.60
59513;BME280;45330;51.634;5.562;2023-06-19T09:18:07;101203.75;;;25.60;63.41
59513;BME280;45330;51.634;5.562;2023-06-19T09:20:34;101176.25;;;25.30;63.19
59513;BME280;45330;51.634;5.562;2023-06-19T09:23:01;101180.34;;;25.07;64.51
59513;BME280;45330;51.634;5.562;2023-06-19T09:25:27;101192.53;;;24.97;65.13
59513;BME280;45330;51.634;5.562;2023-06-19T09:27:54;101182.91;;;24.94;63.89
59513;BME280;45330;51.634;5.562;2023-06-19T09:30:19;101204.69;;;25.30;64.63
59513;BME280;45330;51.634;5.562;2023-06-19T09:32:45;101202.97;;;25.14;62.21
59513;BME280;45330;51.634;5.562;2023-06-19T09:35:10;101212.03;;;25.26;62.13
59513;BME280;45330;51.634;5.562;2023-06-19T09:37:38;101211.16;;;25.26;62.09
59513;BME280;45330;51.634;5.562;2023-06-19T09:40:04;101195.28;;;25.24;62.29
59513;BME280;45330;51.634;5.562;2023-06-19T09:42:38;101207.56;;;25.27;62.27
59513;BME280;45330;51.634;5.562;2023-06-19T09:45:06;101211.75;;;25.31;62.96
59513;BME280;45330;51.634;5.562;2023-06-19T09:47:40;101207.94;;;25.49;63.08
59513;BME280;45330;51.634;5.562;2023-06-19T09:50:08;101192.94;;;25.48;62.38
59513;BME280;45330;51.634;5.562;2023-06-19T09:52:34;101212.53;;;25.47;61.00
59513;BME280;45330;51.634;5.562;2023-06-19T09:55:04;101220.13;;;25.25;60.81
59513;BME280;45330;51.634;5.562;2023-06-19T09:57:32;101213.66;;;25.29;60.92
59513;BME280;45330;51.634;5.562;2023-06-19T09:59:59;101211.28;;;25.53;59.93
59513;BME280;45330;51.634;5.562;2023-06-19T10:02:36;101209.25;;;25.71;58.85
59513;BME280;45330;51.634;5.562;2023-06-19T10:05:03;101222.31;;;26.03;59.39
59513;BME280;45330;51.634;5.562;2023-06-19T10:07:34;101208.19;;;26.15;59.37
59513;BME280;45330;51.634;5.562;2023-06-19T10:10:03;101214.94;;;26.34;58.55
59513;BME280;45330;51.634;5.562;2023-06-19T10:12:46;101203.09;;;25.98;57.55
59513;BME280;45330;51.634;5.562;2023-06-19T10:17:43;101219.81;;;26.00;56.91
59513;BME280;45330;51.634;5.562;2023-06-19T10:22:58;101219.47;;;26.06;56.06
59513;BME280;45330;51.634;5.562;2023-06-19T10:25:37;101212.97;;;25.96;57.33
59513;BME280;45330;51.634;5.562;2023-06-19T10:28:03;101219.09;;;25.98;58.09
59513;BME280;45330;51.634;5.562;2023-06-19T10:30:32;101216.59;;;25.95;56.65
59513;BME280;45330;51.634;5.562;2023-06-19T10:32:59;101222.88;;;26.08;56.92
59513;BME280;45330;51.634;5.562;2023-06-19T10:35:37;101206.72;;;26.24;56.79
59513;BME280;45330;51.634;5.562;2023-06-19T10:38:03;101228.75;;;26.53;55.35
59513;BME280;45330;51.634;5.562;2023-06-19T10:40:29;101225.22;;;26.80;54.50
59513;BME280;45330;51.634;5.562;2023-06-19T10:42:55;101212.28;;;26.74;54.96
59513;BME280;45330;51.634;5.562;2023-06-19T10:45:20;101218.38;;;26.76;54.68
59513;BME280;45330;51.634;5.562;2023-06-19T10:47:53;101231.00;;;27.00;53.32
59513;BME280;45330;51.634;5.562;2023-06-19T10:50:19;101234.72;;;27.23;52.62
59513;BME280;45330;51.634;5.562;2023-06-19T10:52:46;101226.38;;;27.28;51.18
59513;BME280;45330;51.634;5.562;2023-06-19T10:55:13;101221.03;;;27.28;50.49
59513;BME280;45330;51.634;5.562;2023-06-19T10:57:40;101223.38;;;27.32;50.04
59513;BME280;45330;51.634;5.562;2023-06-19T11:00:06;101222.13;;;27.38;50.08
59513;BME280;45330;51.634;5.562;2023-06-19T11:02:41;101208.72;;;27.51;49.81
59513;BME280;45330;51.634;5.562;2023-06-19T11:05:09;101222.72;;;27.92;50.20
59513;BME280;45330;51.634;5.562;2023-06-19T11:07:35;101229.03;;;27.53;48.81
59513;BME280;45330;51.634;5.562;2023-06-19T11:10:02;101219.22;;;27.28;48.14
59513;BME280;45330;51.634;5.562;2023-06-19T11:12:27;101217.09;;;27.20;48.36
59513;BME280;45330;51.634;5.562;2023-06-19T11:14:53;101223.81;;;27.26;48.90
59513;BME280;45330;51.634;5.562;2023-06-19T11:17:19;101199.31;;;27.32;49.08
59513;BME280;45330;51.634;5.562;2023-06-19T11:19:46;101212.69;;;27.45;49.39
59513;BME280;45330;51.634;5.562;2023-06-19T11:22:11;101217.03;;;27.59;49.16
59513;BME280;45330;51.634;5.562;2023-06-19T11:24:43;101220.97;;;27.79;48.44
59513;BME280;45330;51.634;5.562;2023-06-19T11:27:16;101204.78;;;27.44;49.86
59513;BME280;45330;51.634;5.562;2023-06-19T11:29:42;101217.75;;;27.37;49.17
59513;BME280;45330;51.634;5.562;2023-06-19T11:32:09;101219.63;;;27.48;48.90
59513;BME280;45330;51.634;5.562;2023-06-19T11:34:36;101221.25;;;27.25;48.11
59513;BME280;45330;51.634;5.562;2023-06-19T11:37:15;101222.56;;;27.06;48.20
59513;BME280;45330;51.634;5.562;2023-06-19T11:39:45;101213.13;;;26.75;49.70
59513;BME280;45330;51.634;5.562;2023-06-19T11:42:10;101208.31;;;26.67;49.98
59513;BME280;45330;51.634;5.562;2023-06-19T11:44:52;101205.84;;;26.64;49.08
59513;BME280;45330;51.634;5.562;2023-06-19T11:47:18;101199.41;;;26.66;48.83
59513;BME280;45330;51.634;5.562;2023-06-19T11:49:47;101180.50;;;26.57;47.81
59513;BME280;45330;51.634;5.562;2023-06-19T11:52:13;101197.00;;;26.76;48.04
59513;BME280;45330;51.634;5.562;2023-06-19T11:54:38;101186.06;;;26.66;48.91
59513;BME280;45330;51.634;5.562;2023-06-19T11:57:03;101197.50;;;26.56;49.63
59513;BME280;45330;51.634;5.562;2023-06-19T11:59:29;101195.84;;;26.80;48.04
59513;BME280;45330;51.634;5.562;2023-06-19T12:01:55;101201.63;;;26.87;45.76
59513;BME280;45330;51.634;5.562;2023-06-19T12:04:23;101195.84;;;26.93;46.57
59513;BME280;45330;51.634;5.562;2023-06-19T12:06:48;101201.28;;;26.92;47.43
59513;BME280;45330;51.634;5.562;2023-06-19T12:09:14;101197.44;;;26.96;47.51
59513;BME280;45330;51.634;5.562;2023-06-19T12:11:39;101169.13;;;26.93;47.23
59513;BME280;45330;51.634;5.562;2023-06-19T12:14:05;101185.06;;;27.08;46.98
59513;BME280;45330;51.634;5.562;2023-06-19T12:16:30;101184.94;;;27.09;44.53
59513;BME280;45330;51.634;5.562;2023-06-19T12:18:57;101195.41;;;27.12;43.36
59513;BME280;45330;51.634;5.562;2023-06-19T12:21:22;101203.88;;;27.06;43.30
59513;BME280;45330;51.634;5.562;2023-06-19T12:23:48;101200.09;;;27.09;43.03
59513;BME280;45330;51.634;5.562;2023-06-19T12:26:13;101187.19;;;27.02;44.47
59513;BME280;45330;51.634;5.562;2023-06-19T12:28:39;101189.09;;;26.87;44.06
59513;BME280;45330;51.634;5.562;2023-06-19T12:31:04;101213.25;;;26.99;45.51
59513;BME280;45330;51.634;5.562;2023-06-19T12:33:30;101209.84;;;27.10;45.68
59513;BME280;45330;51.634;5.562;2023-06-19T12:35:58;101194.34;;;26.89;45.23
59513;BME280;45330;51.634;5.562;2023-06-19T12:38:24;101194.03;;;26.94;46.33
59513;BME280;45330;51.634;5.562;2023-06-19T12:40:49;101199.56;;;27.16;45.52
59513;BME280;45330;51.634;5.562;2023-06-19T12:43:15;101201.28;;;27.17;44.47
59513;BME280;45330;51.634;5.562;2023-06-19T12:45:40;101200.97;;;27.35;43.81
59513;BME280;45330;51.634;5.562;2023-06-19T12:48:07;101190.41;;;26.95;42.50
59513;BME280;45330;51.634;5.562;2023-06-19T12:50:32;101195.94;;;27.04;43.81
59513;BME280;45330;51.634;5.562;2023-06-19T12:52:57;101196.59;;;27.08;43.87